sensor_id;sensor_type;location;lat;lon;timestamp;pressure;altitude;pressure_sealevel;temperature;humidity
76046;BME280;64741;41.730;44.788;2023-06-24T00:02:42;992.4;;;26.5;43.2
76046;BME280;64741;41.730;44.788;2023-06-24T00:07:36;992.3;;;26.6;43.1
76046;BME280;64741;41.730;44.788;2023-06-24T00:12:42;992.3;;;26.6;43.1
76046;BME280;64741;41.730;44.788;2023-06-24T00:17:36;992.3;;;26.6;43.1
76046;BME280;64741;41.730;44.788;2023-06-24T00:22:42;992.3;;;26.6;43
76046;BME280;64741;41.730;44.788;2023-06-24T00:27:18;992.3;;;26.6;43
76046;BME280;64741;41.730;44.788;2023-06-24T00:32:36;992.3;;;26.6;43
76046;BME280;64741;41.730;44.788;2023-06-24T00:37:36;992.4;;;26.6;43
76046;BME280;64741;41.730;44.788;2023-06-24T00:42:32;992.5;;;26.6;43
76046;BME280;64741;41.730;44.788;2023-06-24T00:47:34;992.5;;;26.6;43.1
76046;BME280;64741;41.730;44.788;2023-06-24T00:52:32;992.5;;;26.6;43.2
76046;BME280;64741;41.730;44.788;2023-06-24T00:57:40;992.5;;;26.6;43.2
76046;BME280;64741;41.730;44.788;2023-06-24T01:02:36;992.6;;;26.6;43.2
76046;BME280;64741;41.730;44.788;2023-06-24T01:07:40;992.6;;;26.6;43.3
76046;BME280;64741;41.730;44.788;2023-06-24T01:12:40;992.6;;;26.6;43.3
76046;BME280;64741;41.730;44.788;2023-06-24T01:17:33;992.6;;;26.6;43.3
76046;BME280;64741;41.730;44.788;2023-06-24T01:22:59;992.7;;;26.6;43.4
76046;BME280;64741;41.730;44.788;2023-06-24T01:27:45;992.7;;;26.6;43.5
76046;BME280;64741;41.730;44.788;2023-06-24T01:31:48;992.7;;;26.6;43.6
76046;BME280;64741;41.730;44.788;2023-06-24T01:37:40;992.8;;;26.5;43.7
76046;BME280;64741;41.730;44.788;2023-06-24T01:42:37;992.9;;;26.6;43.8
76046;BME280;64741;41.730;44.788;2023-06-24T01:47:34;992.9;;;26.5;44
76046;BME280;64741;41.730;44.788;2023-06-24T01:52:36;993;;;26.5;44.1
76046;BME280;64741;41.730;44.788;2023-06-24T01:57:38;993;;;26.5;44.1
76046;BME280;64741;41.730;44.788;2023-06-24T02:02:34;993.1;;;26.5;44.3
76046;BME280;64741;41.730;44.788;2023-06-24T02:07:42;993.1;;;26.5;44.3
76046;BME280;64741;41.730;44.788;2023-06-24T02:12:38;993.1;;;26.5;44.3
76046;BME280;64741;41.730;44.788;2023-06-24T02:17:42;993.2;;;26.5;44.2
76046;BME280;64741;41.730;44.788;2023-06-24T02:22:32;993.2;;;26.5;44.4
76046;BME280;64741;41.730;44.788;2023-06-24T02:27:34;993.3;;;26.5;44.4
76046;BME280;64741;41.730;44.788;2023-06-24T02:32:34;993.3;;;26.5;44.5
76046;BME280;64741;41.730;44.788;2023-06-24T02:37:34;993.3;;;26.5;44.4
76046;BME280;64741;41.730;44.788;2023-06-24T02:42:36;993.3;;;26.5;44.4
76046;BME280;64741;41.730;44.788;2023-06-24T02:47:34;993.4;;;26.5;44.6
76046;BME280;64741;41.730;44.788;2023-06-24T02:52:42;993.4;;;26.5;44.6
76046;BME280;64741;41.730;44.788;2023-06-24T02:57:34;993.4;;;26.5;44.6
76046;BME280;64741;41.730;44.788;2023-06-24T03:02:36;993.5;;;26.5;44.7
76046;BME280;64741;41.730;44.788;2023-06-24T03:07:24;993.5;;;26.5;44.7
76046;BME280;64741;41.730;44.788;2023-06-24T03:12:34;993.5;;;26.5;44.7
76046;BME280;64741;41.730;44.788;2023-06-24T03:17:38;993.5;;;26.5;44.8
76046;BME280;64741;41.730;44.788;2023-06-24T03:22:36;993.5;;;26.5;45
76046;BME280;64741;41.730;44.788;2023-06-24T03:27:36;993.5;;;26.5;45.1
76046;BME280;64741;41.730;44.788;2023-06-24T03:32:32;993.5;;;26.4;45.4
76046;BME280;64741;41.730;44.788;2023-06-24T03:37:34;993.5;;;26.4;45.6
76046;BME280;64741;41.730;44.788;2023-06-24T03:42:28;993.5;;;26.4;45.7
76046;BME280;64741;41.730;44.788;2023-06-24T03:47:40;993.5;;;26.4;45.8
76046;BME280;64741;41.730;44.788;2023-06-24T03:52:36;993.5;;;26.4;45.8
76046;BME280;64741;41.730;44.788;2023-06-24T03:57:30;993.6;;;26.4;46
76046;BME280;64741;41.730;44.788;2023-06-24T04:02:40;993.7;;;26.4;46.1
76046;BME280;64741;41.730;44.788;2023-06-24T04:07:36;993.7;;;26.4;46
76046;BME280;64741;41.730;44.788;2023-06-24T04:12:34;993.7;;;26.4;46.1
76046;BME280;64741;41.730;44.788;2023-06-24T04:17:32;993.8;;;26.4;46.1
76046;BME280;64741;41.730;44.788;2023-06-24T04:22:34;993.9;;;26.4;46.1
76046;BME280;64741;41.730;44.788;2023-06-24T04:27:40;993.9;;;26.4;46.2
76046;BME280;64741;41.730;44.788;2023-06-24T04:32:22;993.9;;;26.4;46.3
76046;BME280;64741;41.730;44.788;2023-06-24T04:37:40;993.9;;;26.4;46.4
76046;BME280;64741;41.730;44.788;2023-06-24T05:02:36;993.9;;;26.4;46.4
76046;BME280;64741;41.730;44.788;2023-06-24T05:07:34;994;;;24.3;50.8
76046;BME280;64741;41.730;44.788;2023-06-24T05:12:36;994;;;24.7;50.5
76046;BME280;64741;41.730;44.788;2023-06-24T05:17:36;994;;;25.1;49.8
76046;BME280;64741;41.730;44.788;2023-06-24T05:22:42;993.9;;;25.4;49.2
76046;BME280;64741;41.730;44.788;2023-06-24T05:27:36;993.9;;;25.7;48.8
76046;BME280;64741;41.730;44.788;2023-06-24T05:32:42;993.9;;;25.8;48.4
76046;BME280;64741;41.730;44.788;2023-06-24T05:37:42;993.9;;;26;48.3
76046;BME280;64741;41.730;44.788;2023-06-24T05:42:34;993.8;;;26.1;47.9
76046;BME280;64741;41.730;44.788;2023-06-24T05:47:36;993.8;;;26.1;47.8
76046;BME280;64741;41.730;44.788;2023-06-24T05:52:36;993.8;;;26.2;47.5
76046;BME280;64741;41.730;44.788;2023-06-24T05:57:36;993.8;;;26.3;47.3
76046;BME280;64741;41.730;44.788;2023-06-24T06:02:36;993.8;;;26.4;47.1
76046;BME280;64741;41.730;44.788;2023-06-24T06:07:36;993.8;;;26.4;47.1
76046;BME280;64741;41.730;44.788;2023-06-24T06:12:34;993.7;;;26.4;46.9
76046;BME280;64741;41.730;44.788;2023-06-24T06:17:34;993.7;;;26.4;46.9
76046;BME280;64741;41.730;44.788;2023-06-24T06:22:18;993.7;;;26.5;46.8
76046;BME280;64741;41.730;44.788;2023-06-24T06:27:32;993.8;;;26.5;46.9
76046;BME280;64741;41.730;44.788;2023-06-24T06:31:54;993.8;;;26.5;46.7
76046;BME280;64741;41.730;44.788;2023-06-24T06:37:36;993.9;;;26.5;46.7
76046;BME280;64741;41.730;44.788;2023-06-24T06:42:42;993.9;;;26.5;46.6
76046;BME280;64741;41.730;44.788;2023-06-24T06:47:32;993.9;;;26.5;46.5
76046;BME280;64741;41.730;44.788;2023-06-24T06:52:34;993.9;;;26.5;46.5
76046;BME280;64741;41.730;44.788;2023-06-24T06:57:32;993.9;;;26.5;46.5
76046;BME280;64741;41.730;44.788;2023-06-24T07:02:32;993.9;;;26.5;46.4
76046;BME280;64741;41.730;44.788;2023-06-24T07:07:36;993.8;;;26.5;46.3
76046;BME280;64741;41.730;44.788;2023-06-24T07:12:36;993.8;;;26.6;46.3
76046;BME280;64741;41.730;44.788;2023-06-24T07:17:42;993.8;;;26.6;46.3
76046;BME280;64741;41.730;44.788;2023-06-24T07:22:32;993.8;;;26.6;46.3
76046;BME280;64741;41.730;44.788;2023-06-24T07:27:34;993.8;;;26.6;46.2
76046;BME280;64741;41.730;44.788;2023-06-24T07:32:38;993.8;;;26.6;46.2
76046;BME280;64741;41.730;44.788;2023-06-24T07:37:33;993.7;;;26.6;46.1
76046;BME280;64741;41.730;44.788;2023-06-24T07:42:34;993.7;;;26.6;46.1
76046;BME280;64741;41.730;44.788;2023-06-24T07:47:32;993.8;;;26.6;46.1
76046;BME280;64741;41.730;44.788;2023-06-24T07:52:34;993.8;;;26.5;45.9
76046;BME280;64741;41.730;44.788;2023-06-24T07:57:32;993.7;;;26.5;45.9
76046;BME280;64741;41.730;44.788;2023-06-24T08:02:34;993.6;;;26.6;45.9
76046;BME280;64741;41.730;44.788;2023-06-24T08:07:22;993.6;;;26.6;46
76046;BME280;64741;41.730;44.788;2023-06-24T08:12:40;993.5;;;26.6;46.1
76046;BME280;64741;41.730;44.788;2023-06-24T08:17:34;993.5;;;26.6;45.8
76046;BME280;64741;41.730;44.788;2023-06-24T08:22:32;993.5;;;26.6;45.5
76046;BME280;64741;41.730;44.788;2023-06-24T08:27:40;993.5;;;26.6;45.6
76046;BME280;64741;41.730;44.788;2023-06-24T08:32:34;993.4;;;26.7;45.5
76046;BME280;64741;41.730;44.788;2023-06-24T08:37:34;993.4;;;26.7;45.3
76046;BME280;64741;41.730;44.788;2023-06-24T08:42:32;993.3;;;26.7;45.2
76046;BME280;64741;41.730;44.788;2023-06-24T08:47:34;993.3;;;26.7;45.2
76046;BME280;64741;41.730;44.788;2023-06-24T08:52:41;993.3;;;26.7;45
76046;BME280;64741;41.730;44.788;2023-06-24T08:57:34;993.2;;;26.7;44.8
76046;BME280;64741;41.730;44.788;2023-06-24T09:02:40;993.1;;;26.7;44.6
76046;BME280;64741;41.730;44.788;2023-06-24T09:07:34;993.1;;;26.7;44.8
76046;BME280;64741;41.730;44.788;2023-06-24T09:12:40;993;;;26.7;45.1
76046;BME280;64741;41.730;44.788;2023-06-24T09:17:22;992.9;;;26.7;44.8
76046;BME280;64741;41.730;44.788;2023-06-24T09:22:32;992.8;;;26.7;44.5
76046;BME280;64741;41.730;44.788;2023-06-24T09:27:34;992.7;;;26.7;44.4
76046;BME280;64741;41.730;44.788;2023-06-24T09:32:30;992.6;;;26.8;44.2
76046;BME280;64741;41.730;44.788;2023-06-24T09:37:34;992.5;;;26.8;44.4
76046;BME280;64741;41.730;44.788;2023-06-24T09:42:34;992.4;;;26.8;44.1
76046;BME280;64741;41.730;44.788;2023-06-24T09:47:24;992.5;;;26.8;44.2
76046;BME280;64741;41.730;44.788;2023-06-24T09:52:34;992.4;;;26.8;44.4
76046;BME280;64741;41.730;44.788;2023-06-24T09:57:40;992.4;;;26.9;43.7
76046;BME280;64741;41.730;44.788;2023-06-24T10:02:40;992.3;;;26.9;43.7
76046;BME280;64741;41.730;44.788;2023-06-24T10:07:41;992.2;;;26.9;43.5
76046;BME280;64741;41.730;44.788;2023-06-24T10:12:36;992.2;;;26.9;43.6
76046;BME280;64741;41.730;44.788;2023-06-24T10:17:34;992.2;;;26.9;43.4
76046;BME280;64741;41.730;44.788;2023-06-24T10:22:34;992.3;;;26.9;43.4
76046;BME280;64741;41.730;44.788;2023-06-24T10:27:38;992.2;;;26.9;43.4
76046;BME280;64741;41.730;44.788;2023-06-24T10:32:41;992.2;;;26.9;43.1
76046;BME280;64741;41.730;44.788;2023-06-24T10:37:32;992.2;;;27;42.7
76046;BME280;64741;41.730;44.788;2023-06-24T10:42:37;992.1;;;27;42.5
76046;BME280;64741;41.730;44.788;2023-06-24T10:47:32;992;;;27;42
76046;BME280;64741;41.730;44.788;2023-06-24T10:52:34;992;;;27;41.8
76046;BME280;64741;41.730;44.788;2023-06-24T10:57:40;992;;;27;41.5
76046;BME280;64741;41.730;44.788;2023-06-24T11:02:34;992;;;27;41.4
76046;BME280;64741;41.730;44.788;2023-06-24T11:07:40;992;;;27;41.4
76046;BME280;64741;41.730;44.788;2023-06-24T11:12:33;991.9;;;27;41.2
76046;BME280;64741;41.730;44.788;2023-06-24T11:17:33;991.9;;;27;40.9
76046;BME280;64741;41.730;44.788;2023-06-24T11:22:32;991.8;;;27;41.3
76046;BME280;64741;41.730;44.788;2023-06-24T11:27:32;991.9;;;27;41.5
76046;BME280;64741;41.730;44.788;2023-06-24T11:32:35;991.8;;;27;41.6
76046;BME280;64741;41.730;44.788;2023-06-24T11:37:34;991.8;;;27;41.8
76046;BME280;64741;41.730;44.788;2023-06-24T11:42:41;991.7;;;27;41.5
76046;BME280;64741;41.730;44.788;2023-06-24T11:47:32;991.7;;;27;41.5
76046;BME280;64741;41.730;44.788;2023-06-24T11:52:38;991.6;;;27;41.7
76046;BME280;64741;41.730;44.788;2023-06-24T11:57:49;991.5;;;27;41.7
76046;BME280;64741;41.730;44.788;2023-06-24T12:02:32;991.5;;;27;41.9
76046;BME280;64741;41.730;44.788;2023-06-24T12:07:34;991.5;;;27;41.7
76046;BME280;64741;41.730;44.788;2023-06-24T12:12:34;991.5;;;27;41.6
76046;BME280;64741;41.730;44.788;2023-06-24T12:17:34;991.5;;;27.1;41.5
76046;BME280;64741;41.730;44.788;2023-06-24T12:22:32;991.5;;;27.1;41.4
76046;BME280;64741;41.730;44.788;2023-06-24T12:27:34;991.4;;;27.1;41.3
76046;BME280;64741;41.730;44.788;2023-06-24T12:32:38;991.4;;;27.1;41.1
76046;BME280;64741;41.730;44.788;2023-06-24T12:37:40;991.3;;;27.1;41.2
76046;BME280;64741;41.730;44.788;2023-06-24T12:42:34;991.2;;;27.1;41.3
76046;BME280;64741;41.730;44.788;2023-06-24T12:47:32;991.2;;;27.1;41.2
76046;BME280;64741;41.730;44.788;2023-06-24T12:52:33;991;;;27.1;41.3
76046;BME280;64741;41.730;44.788;2023-06-24T12:57:34;991;;;27.1;41.4
76046;BME280;64741;41.730;44.788;2023-06-24T13:02:35;990.9;;;27.1;41.4
76046;BME280;64741;41.730;44.788;2023-06-24T13:07:32;990.8;;;27.1;41.4
76046;BME280;64741;41.730;44.788;2023-06-24T13:12:34;990.7;;;27.1;41.2
76046;BME280;64741;41.730;44.788;2023-06-24T13:17:40;990.7;;;27.1;41
76046;BME280;64741;41.730;44.788;2023-06-24T13:22:34;990.7;;;27.1;40.9
76046;BME280;64741;41.730;44.788;2023-06-24T13:27:40;990.6;;;27.1;41
76046;BME280;64741;41.730;44.788;2023-06-24T13:32:34;990.6;;;27.1;40.8
76046;BME280;64741;41.730;44.788;2023-06-24T13:37:40;990.5;;;27.1;40.7
76046;BME280;64741;41.730;44.788;2023-06-24T13:42:32;990.5;;;27.1;40.9
76046;BME280;64741;41.730;44.788;2023-06-24T13:47:35;990.5;;;27.1;41.3
76046;BME280;64741;41.730;44.788;2023-06-24T13:52:36;990.5;;;27.1;41.4
76046;BME280;64741;41.730;44.788;2023-06-24T13:57:28;990.5;;;27.1;41.4
76046;BME280;64741;41.730;44.788;2023-06-24T14:02:34;990.5;;;27.1;41.4
76046;BME280;64741;41.730;44.788;2023-06-24T14:07:36;990.5;;;27.1;41.5
76046;BME280;64741;41.730;44.788;2023-06-24T14:12:40;990.5;;;27.1;41.7
76046;BME280;64741;41.730;44.788;2023-06-24T14:17:18;990.5;;;27.1;41.5
76046;BME280;64741;41.730;44.788;2023-06-24T14:22:26;990.5;;;27.1;41.5
76046;BME280;64741;41.730;44.788;2023-06-24T14:27:40;990.5;;;27.1;41.4
76046;BME280;64741;41.730;44.788;2023-06-24T14:32:32;990.5;;;27.1;41.6
76046;BME280;64741;41.730;44.788;2023-06-24T14:37:34;990.5;;;27.1;41.8
76046;BME280;64741;41.730;44.788;2023-06-24T14:42:36;990.5;;;27.1;41.5
76046;BME280;64741;41.730;44.788;2023-06-24T14:47:12;990.5;;;27.1;41.3
76046;BME280;64741;41.730;44.788;2023-06-24T14:52:36;990.6;;;27.1;41.6
76046;BME280;64741;41.730;44.788;2023-06-24T14:57:36;990.5;;;27.1;41.7
76046;BME280;64741;41.730;44.788;2023-06-24T15:02:42;990.5;;;27.1;41.8
76046;BME280;64741;41.730;44.788;2023-06-24T15:07:40;990.6;;;27.1;41.7
76046;BME280;64741;41.730;44.788;2023-06-24T15:12:36;990.6;;;27.1;41.9
76046;BME280;64741;41.730;44.788;2023-06-24T15:17:36;990.7;;;27.1;41.8
76046;BME280;64741;41.730;44.788;2023-06-24T15:22:37;990.7;;;27.1;41.9
76046;BME280;64741;41.730;44.788;2023-06-24T15:27:20;990.7;;;27.1;42
76046;BME280;64741;41.730;44.788;2023-06-24T15:32:36;990.7;;;27.1;42
76046;BME280;64741;41.730;44.788;2023-06-24T15:37:18;990.7;;;27.1;42.1
76046;BME280;64741;41.730;44.788;2023-06-24T15:42:36;990.7;;;27.1;42.3
76046;BME280;64741;41.730;44.788;2023-06-24T15:47:36;990.8;;;27.1;42.3
76046;BME280;64741;41.730;44.788;2023-06-24T15:52:34;990.8;;;27.1;42.3
76046;BME280;64741;41.730;44.788;2023-06-24T15:57:42;990.9;;;27.1;42.4
76046;BME280;64741;41.730;44.788;2023-06-24T16:02:36;991;;;27.1;42.5
76046;BME280;64741;41.730;44.788;2023-06-24T16:07:42;991;;;27.1;42.6
76046;BME280;64741;41.730;44.788;2023-06-24T16:12:34;991;;;27.1;42.8
76046;BME280;64741;41.730;44.788;2023-06-24T16:17:34;991;;;27.1;42.7
76046;BME280;64741;41.730;44.788;2023-06-24T16:22:33;991;;;27.1;42.7
76046;BME280;64741;41.730;44.788;2023-06-24T16:27:32;991;;;27.1;42.7
76046;BME280;64741;41.730;44.788;2023-06-24T16:32:36;991;;;27.1;42.9
76046;BME280;64741;41.730;44.788;2023-06-24T16:37:37;991;;;27.1;42.8
76046;BME280;64741;41.730;44.788;2023-06-24T16:42:43;991;;;27;42.8
76046;BME280;64741;41.730;44.788;2023-06-24T16:47:35;991;;;27;42.8
76046;BME280;64741;41.730;44.788;2023-06-24T16:52:35;991;;;27;43
76046;BME280;64741;41.730;44.788;2023-06-24T16:57:43;991.1;;;27;43.1
76046;BME280;64741;41.730;44.788;2023-06-24T17:02:35;991.1;;;27;43.2
76046;BME280;64741;41.730;44.788;2023-06-24T17:07:37;991.1;;;27;43.3
76046;BME280;64741;41.730;44.788;2023-06-24T17:12:37;991.2;;;27;43.2
76046;BME280;64741;41.730;44.788;2023-06-24T17:17:37;991.2;;;27;43.3
76046;BME280;64741;41.730;44.788;2023-06-24T17:22:35;991.4;;;27;43.3
76046;BME280;64741;41.730;44.788;2023-06-24T17:27:37;991.5;;;27;43.4
76046;BME280;64741;41.730;44.788;2023-06-24T17:32:25;991.6;;;27;43.4
76046;BME280;64741;41.730;44.788;2023-06-24T17:37:43;991.7;;;27;43.4
76046;BME280;64741;41.730;44.788;2023-06-24T17:42:37;991.9;;;27;43.4
76046;BME280;64741;41.730;44.788;2023-06-24T17:47:35;991.9;;;27;43.5
76046;BME280;64741;41.730;44.788;2023-06-24T17:52:43;991.9;;;27;43.5
76046;BME280;64741;41.730;44.788;2023-06-24T17:57:37;992;;;27;43.5
76046;BME280;64741;41.730;44.788;2023-06-24T18:02:37;992.1;;;27;43.5
76046;BME280;64741;41.730;44.788;2023-06-24T18:07:35;992.1;;;27;43.6
76046;BME280;64741;41.730;44.788;2023-06-24T18:12:37;992.1;;;27;43.6
76046;BME280;64741;41.730;44.788;2023-06-24T18:17:43;992.2;;;27;43.7
76046;BME280;64741;41.730;44.788;2023-06-24T18:22:37;992.2;;;27;43.8
76046;BME280;64741;41.730;44.788;2023-06-24T18:27:29;992.2;;;26.9;43.7
76046;BME280;64741;41.730;44.788;2023-06-24T18:32:37;992.2;;;26.9;43.8
76046;BME280;64741;41.730;44.788;2023-06-24T18:37:43;992.2;;;26.9;43.8
76046;BME280;64741;41.730;44.788;2023-06-24T18:42:37;992.3;;;26.9;43.9
76046;BME280;64741;41.730;44.788;2023-06-24T18:47:43;992.3;;;26.9;44
76046;BME280;64741;41.730;44.788;2023-06-24T18:52:27;992.3;;;26.9;44
76046;BME280;64741;41.730;44.788;2023-06-24T18:57:35;992.3;;;26.9;44
76046;BME280;64741;41.730;44.788;2023-06-24T19:02:37;992.4;;;26.9;44.1
76046;BME280;64741;41.730;44.788;2023-06-24T19:07:37;992.4;;;26.9;44
76046;BME280;64741;41.730;44.788;2023-06-24T19:12:43;992.4;;;26.9;44.1
76046;BME280;64741;41.730;44.788;2023-06-24T19:17:35;992.4;;;26.9;44.1
76046;BME280;64741;41.730;44.788;2023-06-24T19:22:37;992.3;;;26.9;44.1
76046;BME280;64741;41.730;44.788;2023-06-24T19:27:43;992.4;;;26.9;44.1
76046;BME280;64741;41.730;44.788;2023-06-24T19:32:43;992.4;;;26.9;44.2
76046;BME280;64741;41.730;44.788;2023-06-24T19:37:37;992.4;;;26.9;44.2
76046;BME280;64741;41.730;44.788;2023-06-24T19:42:37;992.3;;;26.9;44.2
76046;BME280;64741;41.730;44.788;2023-06-24T19:47:37;992.4;;;26.8;44.2
76046;BME280;64741;41.730;44.788;2023-06-24T19:52:29;992.4;;;26.8;44.3
76046;BME280;64741;41.730;44.788;2023-06-24T19:57:37;992.4;;;26.8;44.3
76046;BME280;64741;41.730;44.788;2023-06-24T20:02:35;992.5;;;26.8;44.3
76046;BME280;64741;41.730;44.788;2023-06-24T20:07:37;992.6;;;26.8;44.4
76046;BME280;64741;41.730;44.788;2023-06-24T20:12:35;992.6;;;26.8;44.3
76046;BME280;64741;41.730;44.788;2023-06-24T20:17:35;992.7;;;26.8;44.3
76046;BME280;64741;41.730;44.788;2023-06-24T20:22:41;992.6;;;26.8;44.3
76046;BME280;64741;41.730;44.788;2023-06-24T20:27:37;992.7;;;26.8;44.4
76046;BME280;64741;41.730;44.788;2023-06-24T20:32:43;992.7;;;26.8;44.4
76046;BME280;64741;41.730;44.788;2023-06-24T20:37:35;992.7;;;26.8;44.4
76046;BME280;64741;41.730;44.788;2023-06-24T20:42:11;992.8;;;26.8;44.4
76046;BME280;64741;41.730;44.788;2023-06-24T20:47:35;992.7;;;26.8;44.4
76046;BME280;64741;41.730;44.788;2023-06-24T20:52:35;992.7;;;26.8;44.5
76046;BME280;64741;41.730;44.788;2023-06-24T20:57:37;992.6;;;26.8;44.4
76046;BME280;64741;41.730;44.788;2023-06-24T21:02:37;992.6;;;26.8;44.4
76046;BME280;64741;41.730;44.788;2023-06-24T21:07:43;992.6;;;26.8;44.5
76046;BME280;64741;41.730;44.788;2023-06-24T21:12:19;992.5;;;26.7;44.7
76046;BME280;64741;41.730;44.788;2023-06-24T21:17:37;992.5;;;26.8;44.7
76046;BME280;64741;41.730;44.788;2023-06-24T21:22:43;992.5;;;26.8;44.6
76046;BME280;64741;41.730;44.788;2023-06-24T21:27:35;992.4;;;26.8;44.7
76046;BME280;64741;41.730;44.788;2023-06-24T21:32:37;992.5;;;26.8;44.7
76046;BME280;64741;41.730;44.788;2023-06-24T21:37:37;992.5;;;26.8;44.7
76046;BME280;64741;41.730;44.788;2023-06-24T21:42:37;992.5;;;26.8;44.7
76046;BME280;64741;41.730;44.788;2023-06-24T21:47:34;992.5;;;26.8;44.8
76046;BME280;64741;41.730;44.788;2023-06-24T21:52:35;992.6;;;26.8;44.8
76046;BME280;64741;41.730;44.788;2023-06-24T21:57:41;992.6;;;26.8;44.8
76046;BME280;64741;41.730;44.788;2023-06-24T22:02:41;992.6;;;26.9;44.8
76046;BME280;64741;41.730;44.788;2023-06-24T22:07:35;992.6;;;26.9;44.9
76046;BME280;64741;41.730;44.788;2023-06-24T22:12:33;992.6;;;26.9;44.8
76046;BME280;64741;41.730;44.788;2023-06-24T22:22:40;992.5;;;26.7;45
76046;BME280;64741;41.730;44.788;2023-06-24T22:27:35;992.6;;;26.6;45.4
76046;BME280;64741;41.730;44.788;2023-06-24T22:32:33;992.6;;;26.7;45.2
76046;BME280;64741;41.730;44.788;2023-06-24T22:37:35;992.6;;;26.8;45
76046;BME280;64741;41.730;44.788;2023-06-24T22:42:41;992.6;;;26.8;44.9
76046;BME280;64741;41.730;44.788;2023-06-24T22:47:29;992.6;;;26.9;44.7
76046;BME280;64741;41.730;44.788;2023-06-24T22:52:33;992.5;;;26.9;44.6
76046;BME280;64741;41.730;44.788;2023-06-24T22:57:33;992.5;;;26.9;44.6
76046;BME280;64741;41.730;44.788;2023-06-24T23:02:41;992.5;;;26.9;44.5
76046;BME280;64741;41.730;44.788;2023-06-24T23:07:33;992.5;;;26.9;44.5
76046;BME280;64741;41.730;44.788;2023-06-24T23:12:41;992.5;;;26.9;44.4
76046;BME280;64741;41.730;44.788;2023-06-24T23:17:41;992.4;;;26.9;44.4
76046;BME280;64741;41.730;44.788;2023-06-24T23:22:31;992.4;;;26.9;44.3
76046;BME280;64741;41.730;44.788;2023-06-24T23:27:33;992.4;;;26.9;44.3
76046;BME280;64741;41.730;44.788;2023-06-24T23:32:34;992.4;;;26.9;44.3
76046;BME280;64741;41.730;44.788;2023-06-24T23:37:41;992.4;;;26.9;44.3
76046;BME280;64741;41.730;44.788;2023-06-24T23:42:34;992.4;;;26.9;44.3
76046;BME280;64741;41.730;44.788;2023-06-24T23:47:33;992.5;;;26.9;44.3
76046;BME280;64741;41.730;44.788;2023-06-24T23:52:41;992.4;;;26.9;44.3
76046;BME280;64741;41.730;44.788;2023-06-24T23:57:41;992.4;;;26.9;44.3
